createdAt,value
2023-02-22T00:00:44.642Z,11.90
2023-02-22T00:03:26.998Z,10.75
2023-02-22T00:05:58.551Z,11.50
2023-02-22T00:08:30.698Z,9.68
2023-02-22T00:10:58.391Z,9.82
2023-02-22T00:13:25.305Z,11.82
2023-02-22T00:15:51.777Z,9.98
2023-02-22T00:18:19.331Z,11.60
2023-02-22T00:20:46.025Z,10.30
2023-02-22T00:25:47.120Z,10.80
2023-02-22T00:28:15.316Z,10.38
2023-02-22T00:30:44.783Z,10.45
2023-02-22T00:33:13.277Z,9.18
2023-02-22T00:35:40.013Z,9.50
2023-02-22T00:38:07.034Z,10.32
2023-02-22T00:40:35.416Z,11.55
2023-02-22T00:43:04.983Z,8.80
2023-02-22T00:45:33.572Z,8.80
2023-02-22T00:48:00.936Z,9.75
2023-02-22T00:50:29.346Z,9.10
2023-02-22T00:52:57.733Z,9.13
2023-02-22T00:55:29.957Z,9.75
2023-02-22T00:57:57.414Z,8.43
2023-02-22T01:00:28.358Z,9.63
2023-02-22T01:02:56.946Z,9.05
2023-02-22T01:05:28.951Z,9.57
2023-02-22T01:07:57.520Z,8.68
2023-02-22T01:10:27.029Z,9.00
2023-02-22T01:12:55.231Z,9.25
2023-02-22T01:15:23.961Z,10.63
2023-02-22T01:17:53.648Z,8.63
2023-02-22T01:20:22.937Z,8.82
2023-02-22T01:22:51.688Z,9.90
2023-02-22T01:25:21.227Z,8.63
2023-02-22T01:27:48.277Z,10.15
2023-02-22T01:30:15.225Z,8.00
2023-02-22T01:32:42.746Z,8.18
2023-02-22T01:35:14.110Z,8.07
2023-02-22T01:37:41.364Z,8.88
2023-02-22T01:40:11.156Z,8.68
2023-02-22T01:42:37.683Z,8.85
2023-02-22T01:45:35.043Z,7.95
2023-02-22T01:48:39.204Z,8.57
2023-02-22T01:51:11.512Z,8.85
2023-02-22T01:54:02.637Z,8.25
2023-02-22T01:56:32.765Z,9.88
2023-02-22T01:59:08.785Z,10.48
2023-02-22T02:01:37.303Z,8.63
2023-02-22T02:04:09.976Z,7.68
2023-02-22T02:06:37.870Z,8.00
2023-02-22T02:09:17.392Z,8.77
2023-02-22T02:11:44.341Z,8.20
2023-02-22T02:14:11.896Z,8.00
2023-02-22T02:16:44.924Z,8.05
2023-02-22T02:19:49.579Z,8.05
2023-02-22T02:22:42.651Z,8.07
2023-02-22T02:25:18.274Z,8.07
2023-02-22T02:28:05.310Z,8.80
2023-02-22T02:30:48.867Z,8.60
2023-02-22T02:33:26.080Z,10.15
2023-02-22T02:38:40.214Z,8.25
2023-02-22T02:41:17.348Z,8.88
2023-02-22T02:46:29.857Z,7.78
2023-02-22T02:49:01.166Z,8.00
2023-02-22T02:51:36.695Z,8.13
2023-02-22T02:54:04.341Z,8.40
2023-02-22T02:56:31.212Z,8.85
2023-02-22T02:58:57.682Z,8.25
2023-02-22T03:01:45.232Z,8.57
2023-02-22T03:04:20.944Z,8.45
2023-02-22T03:07:28.060Z,8.18
2023-02-22T03:10:21.459Z,9.02
2023-02-22T03:13:03.115Z,8.45
2023-02-22T03:15:46.810Z,9.57
2023-02-22T03:18:22.921Z,8.02
2023-02-22T03:21:16.767Z,9.23
2023-02-22T03:24:07.239Z,7.10
2023-02-22T03:26:43.580Z,7.70
2023-02-22T03:29:13.280Z,7.87
2023-02-22T03:31:46.349Z,7.40
2023-02-22T03:34:22.985Z,7.60
2023-02-22T03:36:56.521Z,7.68
2023-02-22T03:39:31.013Z,8.75
2023-02-22T03:42:07.689Z,8.52
2023-02-22T03:44:40.302Z,7.97
2023-02-22T03:47:12.203Z,6.75
2023-02-22T03:49:57.577Z,5.95
2023-02-22T03:52:24.558Z,6.32
2023-02-22T03:54:53.814Z,7.05
2023-02-22T03:57:33.899Z,7.05
2023-02-22T04:00:00.766Z,7.68
2023-02-22T04:02:27.320Z,7.97
2023-02-22T04:04:53.965Z,7.75
2023-02-22T04:09:46.895Z,6.40
2023-02-22T04:12:13.408Z,7.20
2023-02-22T04:14:39.861Z,6.60
2023-02-22T04:17:06.378Z,7.90
2023-02-22T04:19:32.870Z,7.18
2023-02-22T04:21:59.344Z,7.00
2023-02-22T04:24:25.882Z,7.55
2023-02-22T04:26:52.975Z,6.03
2023-02-22T04:29:19.476Z,6.57
2023-02-22T04:31:46.052Z,6.93
2023-02-22T04:34:12.758Z,6.78
2023-02-22T04:39:06.035Z,6.68
2023-02-22T04:41:33.385Z,6.93
2023-02-22T04:44:00.001Z,7.18
2023-02-22T04:48:54.403Z,6.70
2023-02-22T04:51:21.035Z,5.28
2023-02-22T04:53:47.542Z,5.13
2023-02-22T04:56:14.134Z,5.25
2023-02-22T05:01:08.266Z,5.45
2023-02-22T05:03:38.082Z,6.25
2023-02-22T05:06:04.759Z,7.75
2023-02-22T05:10:57.699Z,5.32
2023-02-22T05:13:24.177Z,7.00
2023-02-22T05:15:50.722Z,5.90
2023-02-22T05:20:43.890Z,5.75
2023-02-22T05:25:36.964Z,6.40
2023-02-22T05:30:35.222Z,5.90
2023-02-22T05:33:02.759Z,6.32
2023-02-22T05:35:29.442Z,5.90
2023-02-22T05:40:26.374Z,7.07
2023-02-22T05:42:54.094Z,6.90
2023-02-22T05:45:22.937Z,7.20
2023-02-22T05:47:49.446Z,5.32
2023-02-22T05:50:16.312Z,5.28
